sensor_id;sensor_type;location;lat;lon;timestamp;temperature;humidity
7254;DHT22;4060;49.186;9.226;2022-09-09T00:01:54;23.70;47.10
7254;DHT22;4060;49.186;9.226;2022-09-09T00:04:29;23.60;47.20
7254;DHT22;4060;49.186;9.226;2022-09-09T00:07:03;23.60;47.10
7254;DHT22;4060;49.186;9.226;2022-09-09T00:09:43;23.60;47.10
7254;DHT22;4060;49.186;9.226;2022-09-09T00:12:18;23.60;47.30
7254;DHT22;4060;49.186;9.226;2022-09-09T00:14:56;23.60;47.20
7254;DHT22;4060;49.186;9.226;2022-09-09T00:17:35;23.50;47.20
7254;DHT22;4060;49.186;9.226;2022-09-09T00:20:13;23.50;47.30
7254;DHT22;4060;49.186;9.226;2022-09-09T00:22:47;23.50;47.30
7254;DHT22;4060;49.186;9.226;2022-09-09T00:25:26;23.50;47.40
7254;DHT22;4060;49.186;9.226;2022-09-09T00:27:57;23.50;47.30
7254;DHT22;4060;49.186;9.226;2022-09-09T00:30:31;23.50;47.40
7254;DHT22;4060;49.186;9.226;2022-09-09T00:33:11;23.50;47.40
7254;DHT22;4060;49.186;9.226;2022-09-09T00:35:45;23.50;47.40
7254;DHT22;4060;49.186;9.226;2022-09-09T00:38:19;23.40;47.40
7254;DHT22;4060;49.186;9.226;2022-09-09T00:40:58;23.40;47.40
7254;DHT22;4060;49.186;9.226;2022-09-09T00:43:37;23.40;47.50
7254;DHT22;4060;49.186;9.226;2022-09-09T00:49:29;23.40;47.60
7254;DHT22;4060;49.186;9.226;2022-09-09T00:52:10;23.40;47.60
7254;DHT22;4060;49.186;9.226;2022-09-09T00:54:47;23.40;47.60
7254;DHT22;4060;49.186;9.226;2022-09-09T00:57:27;23.40;47.70
7254;DHT22;4060;49.186;9.226;2022-09-09T01:00:14;23.40;47.70
7254;DHT22;4060;49.186;9.226;2022-09-09T01:06:01;23.30;47.80
7254;DHT22;4060;49.186;9.226;2022-09-09T01:08:56;23.30;47.80
7254;DHT22;4060;49.186;9.226;2022-09-09T01:11:33;23.30;47.80
7254;DHT22;4060;49.186;9.226;2022-09-09T01:14:22;23.30;47.80
7254;DHT22;4060;49.186;9.226;2022-09-09T01:16:56;23.30;47.90
7254;DHT22;4060;49.186;9.226;2022-09-09T01:19:35;23.30;47.90
7254;DHT22;4060;49.186;9.226;2022-09-09T01:22:13;23.30;48.00
7254;DHT22;4060;49.186;9.226;2022-09-09T01:25:05;23.30;48.00
7254;DHT22;4060;49.186;9.226;2022-09-09T01:27:47;23.20;48.00
7254;DHT22;4060;49.186;9.226;2022-09-09T01:30:17;23.20;48.00
7254;DHT22;4060;49.186;9.226;2022-09-09T01:32:48;23.20;48.00
7254;DHT22;4060;49.186;9.226;2022-09-09T01:35:35;23.20;48.00
7254;DHT22;4060;49.186;9.226;2022-09-09T01:38:07;23.20;48.10
7254;DHT22;4060;49.186;9.226;2022-09-09T01:40:37;23.20;48.10
7254;DHT22;4060;49.186;9.226;2022-09-09T01:43:09;23.20;48.20
7254;DHT22;4060;49.186;9.226;2022-09-09T01:45:39;23.20;48.20
7254;DHT22;4060;49.186;9.226;2022-09-09T01:48:09;23.10;48.10
7254;DHT22;4060;49.186;9.226;2022-09-09T01:50:38;23.10;48.20
7254;DHT22;4060;49.186;9.226;2022-09-09T01:53:08;23.10;48.20
7254;DHT22;4060;49.186;9.226;2022-09-09T01:55:40;23.20;48.20
7254;DHT22;4060;49.186;9.226;2022-09-09T01:58:32;23.10;48.20
7254;DHT22;4060;49.186;9.226;2022-09-09T02:01:09;23.10;48.20
7254;DHT22;4060;49.186;9.226;2022-09-09T02:03:47;23.10;48.30
7254;DHT22;4060;49.186;9.226;2022-09-09T02:06:26;23.10;48.20
7254;DHT22;4060;49.186;9.226;2022-09-09T02:08:57;23.10;48.20
7254;DHT22;4060;49.186;9.226;2022-09-09T02:11:30;23.10;48.20
7254;DHT22;4060;49.186;9.226;2022-09-09T02:14:07;23.10;48.30
7254;DHT22;4060;49.186;9.226;2022-09-09T02:16:40;23.10;48.40
7254;DHT22;4060;49.186;9.226;2022-09-09T02:19:14;23.10;48.40
7254;DHT22;4060;49.186;9.226;2022-09-09T02:21:46;23.10;48.30
7254;DHT22;4060;49.186;9.226;2022-09-09T02:24:16;23.00;48.30
7254;DHT22;4060;49.186;9.226;2022-09-09T02:26:47;23.00;48.30
7254;DHT22;4060;49.186;9.226;2022-09-09T02:29:22;23.00;48.30
7254;DHT22;4060;49.186;9.226;2022-09-09T02:31:55;23.00;48.30
7254;DHT22;4060;49.186;9.226;2022-09-09T02:34:27;23.00;48.30
7254;DHT22;4060;49.186;9.226;2022-09-09T02:36:58;23.00;48.30
7254;DHT22;4060;49.186;9.226;2022-09-09T02:39:29;23.00;48.30
7254;DHT22;4060;49.186;9.226;2022-09-09T02:41:59;23.00;48.30
7254;DHT22;4060;49.186;9.226;2022-09-09T02:44:33;23.00;48.30
7254;DHT22;4060;49.186;9.226;2022-09-09T02:47:15;23.00;48.40
7254;DHT22;4060;49.186;9.226;2022-09-09T02:49:52;23.00;48.50
7254;DHT22;4060;49.186;9.226;2022-09-09T02:52:32;23.00;48.50
7254;DHT22;4060;49.186;9.226;2022-09-09T02:55:10;22.90;48.50
7254;DHT22;4060;49.186;9.226;2022-09-09T02:57:41;22.90;48.50
7254;DHT22;4060;49.186;9.226;2022-09-09T03:00:16;22.90;48.50
7254;DHT22;4060;49.186;9.226;2022-09-09T03:02:45;22.90;48.60
7254;DHT22;4060;49.186;9.226;2022-09-09T03:05:14;22.90;48.60
7254;DHT22;4060;49.186;9.226;2022-09-09T03:07:43;22.90;48.70
7254;DHT22;4060;49.186;9.226;2022-09-09T03:10:13;22.90;48.80
7254;DHT22;4060;49.186;9.226;2022-09-09T03:12:42;22.90;48.80
7254;DHT22;4060;49.186;9.226;2022-09-09T03:15:13;22.90;48.80
7254;DHT22;4060;49.186;9.226;2022-09-09T03:17:43;22.90;48.90
7254;DHT22;4060;49.186;9.226;2022-09-09T03:20:12;22.90;48.90
7254;DHT22;4060;49.186;9.226;2022-09-09T03:22:42;22.90;49.00
7254;DHT22;4060;49.186;9.226;2022-09-09T03:25:12;22.90;49.00
7254;DHT22;4060;49.186;9.226;2022-09-09T03:27:42;22.80;49.00
7254;DHT22;4060;49.186;9.226;2022-09-09T03:30:14;22.90;49.10
7254;DHT22;4060;49.186;9.226;2022-09-09T03:32:43;22.80;49.00
7254;DHT22;4060;49.186;9.226;2022-09-09T03:35:13;22.80;49.10
7254;DHT22;4060;49.186;9.226;2022-09-09T03:37:43;22.80;49.20
7254;DHT22;4060;49.186;9.226;2022-09-09T03:40:12;22.80;49.20
7254;DHT22;4060;49.186;9.226;2022-09-09T03:42:41;22.80;49.20
7254;DHT22;4060;49.186;9.226;2022-09-09T03:45:10;22.80;49.30
7254;DHT22;4060;49.186;9.226;2022-09-09T03:47:41;22.80;49.30
7254;DHT22;4060;49.186;9.226;2022-09-09T03:50:10;22.70;49.30
7254;DHT22;4060;49.186;9.226;2022-09-09T03:52:41;22.80;49.40
7254;DHT22;4060;49.186;9.226;2022-09-09T03:55:11;22.80;49.40
7254;DHT22;4060;49.186;9.226;2022-09-09T03:57:40;22.70;49.40
7254;DHT22;4060;49.186;9.226;2022-09-09T04:00:10;22.70;49.50
7254;DHT22;4060;49.186;9.226;2022-09-09T04:02:41;22.70;49.50
7254;DHT22;4060;49.186;9.226;2022-09-09T04:05:12;22.70;49.50
7254;DHT22;4060;49.186;9.226;2022-09-09T04:07:42;22.70;49.50
7254;DHT22;4060;49.186;9.226;2022-09-09T04:10:11;22.70;49.60
7254;DHT22;4060;49.186;9.226;2022-09-09T04:12:41;22.70;49.60
7254;DHT22;4060;49.186;9.226;2022-09-09T04:15:10;22.70;49.70
7254;DHT22;4060;49.186;9.226;2022-09-09T04:17:41;22.70;49.70
7254;DHT22;4060;49.186;9.226;2022-09-09T04:20:10;22.70;49.80
7254;DHT22;4060;49.186;9.226;2022-09-09T04:22:40;22.70;49.80
7254;DHT22;4060;49.186;9.226;2022-09-09T04:25:09;22.70;49.80
7254;DHT22;4060;49.186;9.226;2022-09-09T04:27:38;22.60;49.80
7254;DHT22;4060;49.186;9.226;2022-09-09T04:30:09;22.60;49.80
7254;DHT22;4060;49.186;9.226;2022-09-09T04:32:41;22.60;49.90
7254;DHT22;4060;49.186;9.226;2022-09-09T04:35:10;22.60;49.90
7254;DHT22;4060;49.186;9.226;2022-09-09T04:37:40;22.60;49.90
7254;DHT22;4060;49.186;9.226;2022-09-09T04:40:09;22.60;49.90
7254;DHT22;4060;49.186;9.226;2022-09-09T04:42:39;22.60;49.90
7254;DHT22;4060;49.186;9.226;2022-09-09T04:45:11;22.60;50.00
7254;DHT22;4060;49.186;9.226;2022-09-09T04:47:43;22.60;50.00
7254;DHT22;4060;49.186;9.226;2022-09-09T04:50:12;22.60;50.00
7254;DHT22;4060;49.186;9.226;2022-09-09T04:52:42;22.60;50.10
7254;DHT22;4060;49.186;9.226;2022-09-09T04:55:11;22.50;49.90
7254;DHT22;4060;49.186;9.226;2022-09-09T04:57:41;22.50;50.00
7254;DHT22;4060;49.186;9.226;2022-09-09T05:00:12;22.50;50.00
7254;DHT22;4060;49.186;9.226;2022-09-09T05:02:43;22.50;50.00
7254;DHT22;4060;49.186;9.226;2022-09-09T05:05:13;22.50;50.10
7254;DHT22;4060;49.186;9.226;2022-09-09T05:07:42;22.50;50.00
7254;DHT22;4060;49.186;9.226;2022-09-09T05:10:12;22.50;50.10
7254;DHT22;4060;49.186;9.226;2022-09-09T05:12:42;22.50;50.10
7254;DHT22;4060;49.186;9.226;2022-09-09T05:15:11;22.50;50.20
7254;DHT22;4060;49.186;9.226;2022-09-09T05:17:44;22.50;50.10
7254;DHT22;4060;49.186;9.226;2022-09-09T05:20:13;22.40;50.10
7254;DHT22;4060;49.186;9.226;2022-09-09T05:22:42;22.50;50.20
7254;DHT22;4060;49.186;9.226;2022-09-09T05:25:12;22.40;50.20
7254;DHT22;4060;49.186;9.226;2022-09-09T05:27:41;22.40;50.20
7254;DHT22;4060;49.186;9.226;2022-09-09T05:30:11;22.40;50.20
7254;DHT22;4060;49.186;9.226;2022-09-09T05:32:40;22.40;50.20
7254;DHT22;4060;49.186;9.226;2022-09-09T05:35:12;22.40;50.30
7254;DHT22;4060;49.186;9.226;2022-09-09T05:37:41;22.40;50.20
7254;DHT22;4060;49.186;9.226;2022-09-09T05:40:11;22.40;50.20
7254;DHT22;4060;49.186;9.226;2022-09-09T05:42:41;22.40;50.20
7254;DHT22;4060;49.186;9.226;2022-09-09T05:45:11;22.40;50.30
7254;DHT22;4060;49.186;9.226;2022-09-09T05:47:40;22.40;50.30
7254;DHT22;4060;49.186;9.226;2022-09-09T05:50:12;22.40;50.30
7254;DHT22;4060;49.186;9.226;2022-09-09T05:52:42;22.40;50.30
7254;DHT22;4060;49.186;9.226;2022-09-09T05:55:11;22.30;50.20
7254;DHT22;4060;49.186;9.226;2022-09-09T05:57:41;22.30;50.20
7254;DHT22;4060;49.186;9.226;2022-09-09T06:00:11;22.30;50.20
7254;DHT22;4060;49.186;9.226;2022-09-09T06:02:42;22.30;50.20
7254;DHT22;4060;49.186;9.226;2022-09-09T06:05:14;22.30;50.20
7254;DHT22;4060;49.186;9.226;2022-09-09T06:07:44;22.30;50.30
7254;DHT22;4060;49.186;9.226;2022-09-09T06:10:13;22.30;50.30
7254;DHT22;4060;49.186;9.226;2022-09-09T06:12:43;22.30;50.30
7254;DHT22;4060;49.186;9.226;2022-09-09T06:15:12;22.30;50.30
7254;DHT22;4060;49.186;9.226;2022-09-09T06:17:42;22.30;50.40
7254;DHT22;4060;49.186;9.226;2022-09-09T06:20:16;22.30;50.40
7254;DHT22;4060;49.186;9.226;2022-09-09T06:22:45;22.30;50.50
7254;DHT22;4060;49.186;9.226;2022-09-09T06:25:15;22.30;50.50
7254;DHT22;4060;49.186;9.226;2022-09-09T06:27:50;22.20;50.30
7254;DHT22;4060;49.186;9.226;2022-09-09T06:30:19;22.30;50.40
7254;DHT22;4060;49.186;9.226;2022-09-09T06:32:48;22.30;50.40
7254;DHT22;4060;49.186;9.226;2022-09-09T06:35:20;22.30;50.50
7254;DHT22;4060;49.186;9.226;2022-09-09T06:37:49;22.20;50.40
7254;DHT22;4060;49.186;9.226;2022-09-09T06:40:19;22.20;50.40
7254;DHT22;4060;49.186;9.226;2022-09-09T06:42:48;22.20;50.40
7254;DHT22;4060;49.186;9.226;2022-09-09T06:45:18;22.20;50.40
7254;DHT22;4060;49.186;9.226;2022-09-09T06:47:47;22.30;50.50
7254;DHT22;4060;49.186;9.226;2022-09-09T06:50:18;22.20;50.40
7254;DHT22;4060;49.186;9.226;2022-09-09T06:52:47;22.20;50.40
7254;DHT22;4060;49.186;9.226;2022-09-09T06:55:18;22.20;51.00
7254;DHT22;4060;49.186;9.226;2022-09-09T06:57:47;22.20;50.40
7254;DHT22;4060;49.186;9.226;2022-09-09T07:00:18;22.20;50.50
7254;DHT22;4060;49.186;9.226;2022-09-09T07:02:48;22.20;50.50
7254;DHT22;4060;49.186;9.226;2022-09-09T07:05:19;22.20;50.50
7254;DHT22;4060;49.186;9.226;2022-09-09T07:07:49;22.20;50.50
7254;DHT22;4060;49.186;9.226;2022-09-09T07:10:19;22.20;50.50
7254;DHT22;4060;49.186;9.226;2022-09-09T07:12:51;22.20;50.50
7254;DHT22;4060;49.186;9.226;2022-09-09T07:15:21;22.20;50.50
7254;DHT22;4060;49.186;9.226;2022-09-09T07:17:50;22.20;50.50
7254;DHT22;4060;49.186;9.226;2022-09-09T07:20:22;22.20;50.40
7254;DHT22;4060;49.186;9.226;2022-09-09T07:22:50;22.20;50.50
7254;DHT22;4060;49.186;9.226;2022-09-09T07:25:24;22.20;50.50
7254;DHT22;4060;49.186;9.226;2022-09-09T07:27:54;22.20;50.60
7254;DHT22;4060;49.186;9.226;2022-09-09T07:30:24;22.20;50.50
7254;DHT22;4060;49.186;9.226;2022-09-09T07:32:53;22.20;50.50
7254;DHT22;4060;49.186;9.226;2022-09-09T07:35:25;22.20;50.60
7254;DHT22;4060;49.186;9.226;2022-09-09T07:37:55;22.20;50.60
7254;DHT22;4060;49.186;9.226;2022-09-09T07:40:25;22.20;50.60
7254;DHT22;4060;49.186;9.226;2022-09-09T07:42:54;22.20;50.60
7254;DHT22;4060;49.186;9.226;2022-09-09T07:45:23;22.20;50.60
7254;DHT22;4060;49.186;9.226;2022-09-09T07:47:55;22.20;50.60
7254;DHT22;4060;49.186;9.226;2022-09-09T07:50:26;22.20;50.60
7254;DHT22;4060;49.186;9.226;2022-09-09T07:52:56;22.20;50.60
7254;DHT22;4060;49.186;9.226;2022-09-09T07:55:26;22.20;50.60
7254;DHT22;4060;49.186;9.226;2022-09-09T07:57:57;22.20;50.60
7254;DHT22;4060;49.186;9.226;2022-09-09T08:00:26;22.20;50.60
7254;DHT22;4060;49.186;9.226;2022-09-09T08:02:56;22.20;50.70
7254;DHT22;4060;49.186;9.226;2022-09-09T08:05:29;22.20;50.70
7254;DHT22;4060;49.186;9.226;2022-09-09T08:07:59;22.20;50.80
7254;DHT22;4060;49.186;9.226;2022-09-09T08:10:30;22.20;50.80
7254;DHT22;4060;49.186;9.226;2022-09-09T08:13:00;22.20;50.80
7254;DHT22;4060;49.186;9.226;2022-09-09T08:15:29;22.20;50.80
7254;DHT22;4060;49.186;9.226;2022-09-09T08:18:01;22.20;50.90
7254;DHT22;4060;49.186;9.226;2022-09-09T08:20:33;22.30;51.10
7254;DHT22;4060;49.186;9.226;2022-09-09T08:23:04;22.30;51.30
7254;DHT22;4060;49.186;9.226;2022-09-09T08:25:34;22.30;51.40
7254;DHT22;4060;49.186;9.226;2022-09-09T08:28:04;22.40;51.60
7254;DHT22;4060;49.186;9.226;2022-09-09T08:30:34;22.40;51.70
7254;DHT22;4060;49.186;9.226;2022-09-09T08:33:04;22.50;51.90
7254;DHT22;4060;49.186;9.226;2022-09-09T08:35:37;22.50;51.90
7254;DHT22;4060;49.186;9.226;2022-09-09T08:38:06;22.50;51.90
7254;DHT22;4060;49.186;9.226;2022-09-09T08:40:40;22.60;52.00
7254;DHT22;4060;49.186;9.226;2022-09-09T08:43:17;22.70;52.00
7254;DHT22;4060;49.186;9.226;2022-09-09T08:45:53;22.70;51.90
7254;DHT22;4060;49.186;9.226;2022-09-09T08:48:40;22.70;51.70
7254;DHT22;4060;49.186;9.226;2022-09-09T08:51:14;22.80;51.70
7254;DHT22;4060;49.186;9.226;2022-09-09T08:53:48;22.80;51.60
7254;DHT22;4060;49.186;9.226;2022-09-09T08:56:21;22.80;51.60
7254;DHT22;4060;49.186;9.226;2022-09-09T08:58:53;22.80;51.60
7254;DHT22;4060;49.186;9.226;2022-09-09T09:01:43;22.80;51.60
7254;DHT22;4060;49.186;9.226;2022-09-09T09:04:29;22.80;51.70
7254;DHT22;4060;49.186;9.226;2022-09-09T09:07:14;22.90;51.70
7254;DHT22;4060;49.186;9.226;2022-09-09T09:09:53;22.90;51.60
7254;DHT22;4060;49.186;9.226;2022-09-09T09:12:30;22.90;51.50
7254;DHT22;4060;49.186;9.226;2022-09-09T09:15:01;23.00;51.30
7254;DHT22;4060;49.186;9.226;2022-09-09T09:17:38;23.00;51.70
7254;DHT22;4060;49.186;9.226;2022-09-09T09:20:12;23.00;51.70
7254;DHT22;4060;49.186;9.226;2022-09-09T09:22:48;23.00;51.10
7254;DHT22;4060;49.186;9.226;2022-09-09T09:25:21;23.10;51.20
7254;DHT22;4060;49.186;9.226;2022-09-09T09:27:59;23.10;51.20
7254;DHT22;4060;49.186;9.226;2022-09-09T09:30:36;23.10;51.10
7254;DHT22;4060;49.186;9.226;2022-09-09T09:33:15;23.20;51.20
7254;DHT22;4060;49.186;9.226;2022-09-09T09:35:49;23.20;51.10
7254;DHT22;4060;49.186;9.226;2022-09-09T09:38:23;23.20;51.00
7254;DHT22;4060;49.186;9.226;2022-09-09T09:40:56;23.30;51.00
7254;DHT22;4060;49.186;9.226;2022-09-09T09:43:28;23.30;50.80
7254;DHT22;4060;49.186;9.226;2022-09-09T09:45:58;23.30;50.70
7254;DHT22;4060;49.186;9.226;2022-09-09T09:48:28;23.40;50.60
7254;DHT22;4060;49.186;9.226;2022-09-09T09:53:33;23.40;50.20
7254;DHT22;4060;49.186;9.226;2022-09-09T09:56:06;23.40;50.00
7254;DHT22;4060;49.186;9.226;2022-09-09T09:58:49;23.40;49.90
7254;DHT22;4060;49.186;9.226;2022-09-09T10:01:24;23.40;49.70
7254;DHT22;4060;49.186;9.226;2022-09-09T10:03:57;23.40;49.80
7254;DHT22;4060;49.186;9.226;2022-09-09T10:06:32;23.40;49.70
7254;DHT22;4060;49.186;9.226;2022-09-09T10:09:04;23.40;49.70
7254;DHT22;4060;49.186;9.226;2022-09-09T10:11:57;23.40;49.60
7254;DHT22;4060;49.186;9.226;2022-09-09T10:14:36;23.40;49.50
7254;DHT22;4060;49.186;9.226;2022-09-09T10:17:16;23.30;49.30
7254;DHT22;4060;49.186;9.226;2022-09-09T10:19:58;23.40;49.30
7254;DHT22;4060;49.186;9.226;2022-09-09T10:22:33;23.40;49.30
7254;DHT22;4060;49.186;9.226;2022-09-09T10:25:19;23.40;49.20
7254;DHT22;4060;49.186;9.226;2022-09-09T10:28:25;23.40;49.10
7254;DHT22;4060;49.186;9.226;2022-09-09T10:31:12;23.40;49.00
7254;DHT22;4060;49.186;9.226;2022-09-09T10:33:55;23.40;49.00
7254;DHT22;4060;49.186;9.226;2022-09-09T10:36:28;23.40;48.90
7254;DHT22;4060;49.186;9.226;2022-09-09T10:39:00;23.50;48.90
7254;DHT22;4060;49.186;9.226;2022-09-09T10:41:47;23.50;48.70
7254;DHT22;4060;49.186;9.226;2022-09-09T10:44:38;23.60;48.70
7254;DHT22;4060;49.186;9.226;2022-09-09T10:47:31;23.60;48.60
7254;DHT22;4060;49.186;9.226;2022-09-09T10:50:25;23.60;48.50
7254;DHT22;4060;49.186;9.226;2022-09-09T10:53:07;23.60;48.30
7254;DHT22;4060;49.186;9.226;2022-09-09T10:55:42;23.60;48.30
7254;DHT22;4060;49.186;9.226;2022-09-09T10:58:20;23.70;48.20
7254;DHT22;4060;49.186;9.226;2022-09-09T11:00:54;23.70;48.10
7254;DHT22;4060;49.186;9.226;2022-09-09T11:03:27;23.70;47.90
7254;DHT22;4060;49.186;9.226;2022-09-09T11:06:00;23.70;47.70
7254;DHT22;4060;49.186;9.226;2022-09-09T11:08:32;23.70;47.50
7254;DHT22;4060;49.186;9.226;2022-09-09T11:11:04;23.80;47.50
7254;DHT22;4060;49.186;9.226;2022-09-09T11:13:44;23.80;47.40
7254;DHT22;4060;49.186;9.226;2022-09-09T11:16:22;23.80;47.20
7254;DHT22;4060;49.186;9.226;2022-09-09T11:18:58;23.90;47.00
7254;DHT22;4060;49.186;9.226;2022-09-09T11:21:31;23.90;46.90
7254;DHT22;4060;49.186;9.226;2022-09-09T11:24:06;23.90;46.70
7254;DHT22;4060;49.186;9.226;2022-09-09T11:26:43;24.00;46.80
7254;DHT22;4060;49.186;9.226;2022-09-09T11:29:48;24.00;46.40
7254;DHT22;4060;49.186;9.226;2022-09-09T11:35:34;24.00;46.00
7254;DHT22;4060;49.186;9.226;2022-09-09T11:38:26;24.00;45.90
7254;DHT22;4060;49.186;9.226;2022-09-09T11:40:58;24.00;45.80
7254;DHT22;4060;49.186;9.226;2022-09-09T11:43:31;24.10;45.90
7254;DHT22;4060;49.186;9.226;2022-09-09T11:46:05;24.10;45.90
7254;DHT22;4060;49.186;9.226;2022-09-09T11:48:36;24.10;45.90
7254;DHT22;4060;49.186;9.226;2022-09-09T11:51:08;24.10;45.80
7254;DHT22;4060;49.186;9.226;2022-09-09T11:53:49;24.10;45.80
7254;DHT22;4060;49.186;9.226;2022-09-09T11:56:28;24.20;45.70
7254;DHT22;4060;49.186;9.226;2022-09-09T11:59:00;24.20;45.70
7254;DHT22;4060;49.186;9.226;2022-09-09T12:01:41;24.20;46.20
7254;DHT22;4060;49.186;9.226;2022-09-09T12:07:02;24.20;45.60
7254;DHT22;4060;49.186;9.226;2022-09-09T12:09:48;24.20;45.50
7254;DHT22;4060;49.186;9.226;2022-09-09T12:12:28;24.30;45.40
7254;DHT22;4060;49.186;9.226;2022-09-09T12:17:52;24.30;45.10
7254;DHT22;4060;49.186;9.226;2022-09-09T12:20:23;24.40;45.00
7254;DHT22;4060;49.186;9.226;2022-09-09T12:23:22;24.40;44.80
7254;DHT22;4060;49.186;9.226;2022-09-09T12:26:00;24.40;44.50
7254;DHT22;4060;49.186;9.226;2022-09-09T12:28:49;24.40;44.30
7254;DHT22;4060;49.186;9.226;2022-09-09T12:31:25;24.50;44.00
7254;DHT22;4060;49.186;9.226;2022-09-09T12:34:10;24.50;43.90
7254;DHT22;4060;49.186;9.226;2022-09-09T12:36:42;24.50;43.50
7254;DHT22;4060;49.186;9.226;2022-09-09T12:39:19;24.50;43.40
7254;DHT22;4060;49.186;9.226;2022-09-09T12:41:54;24.50;43.20
7254;DHT22;4060;49.186;9.226;2022-09-09T12:44:26;24.50;43.10
7254;DHT22;4060;49.186;9.226;2022-09-09T12:47:00;24.50;43.10
7254;DHT22;4060;49.186;9.226;2022-09-09T12:49:35;24.50;43.10
7254;DHT22;4060;49.186;9.226;2022-09-09T12:52:08;24.60;43.20
7254;DHT22;4060;49.186;9.226;2022-09-09T12:54:45;24.60;43.20
7254;DHT22;4060;49.186;9.226;2022-09-09T12:57:16;24.50;43.10
7254;DHT22;4060;49.186;9.226;2022-09-09T12:59:46;24.60;43.10
7254;DHT22;4060;49.186;9.226;2022-09-09T13:02:21;24.60;43.10
7254;DHT22;4060;49.186;9.226;2022-09-09T13:04:53;24.60;43.00
7254;DHT22;4060;49.186;9.226;2022-09-09T13:07:23;24.60;43.00
7254;DHT22;4060;49.186;9.226;2022-09-09T13:09:53;24.60;42.90
7254;DHT22;4060;49.186;9.226;2022-09-09T13:12:23;24.60;42.90
7254;DHT22;4060;49.186;9.226;2022-09-09T13:14:55;24.70;42.90
7254;DHT22;4060;49.186;9.226;2022-09-09T13:17:26;24.70;42.80
7254;DHT22;4060;49.186;9.226;2022-09-09T13:19:58;24.70;42.70
7254;DHT22;4060;49.186;9.226;2022-09-09T13:22:31;24.70;42.60
7254;DHT22;4060;49.186;9.226;2022-09-09T13:25:05;24.80;42.60
7254;DHT22;4060;49.186;9.226;2022-09-09T13:27:39;24.80;42.50
7254;DHT22;4060;49.186;9.226;2022-09-09T13:30:23;24.70;42.30
7254;DHT22;4060;49.186;9.226;2022-09-09T13:33:21;24.80;42.30
7254;DHT22;4060;49.186;9.226;2022-09-09T13:35:55;24.80;42.20
7254;DHT22;4060;49.186;9.226;2022-09-09T13:38:26;24.80;42.20
7254;DHT22;4060;49.186;9.226;2022-09-09T13:40:57;24.80;42.20
7254;DHT22;4060;49.186;9.226;2022-09-09T13:43:31;24.80;42.20
7254;DHT22;4060;49.186;9.226;2022-09-09T13:46:02;24.80;42.10
7254;DHT22;4060;49.186;9.226;2022-09-09T13:48:31;24.90;42.20
7254;DHT22;4060;49.186;9.226;2022-09-09T13:51:04;24.90;42.20
7254;DHT22;4060;49.186;9.226;2022-09-09T13:53:33;24.90;42.10
7254;DHT22;4060;49.186;9.226;2022-09-09T13:56:03;24.90;42.10
7254;DHT22;4060;49.186;9.226;2022-09-09T13:58:32;25.00;42.10
7254;DHT22;4060;49.186;9.226;2022-09-09T14:01:01;25.00;42.10
7254;DHT22;4060;49.186;9.226;2022-09-09T14:03:31;25.00;42.10
7254;DHT22;4060;49.186;9.226;2022-09-09T14:06:03;25.00;42.20
7254;DHT22;4060;49.186;9.226;2022-09-09T14:08:35;25.00;42.20
7254;DHT22;4060;49.186;9.226;2022-09-09T14:11:07;25.00;42.30
7254;DHT22;4060;49.186;9.226;2022-09-09T14:13:40;25.00;42.40
7254;DHT22;4060;49.186;9.226;2022-09-09T14:16:10;25.00;42.50
7254;DHT22;4060;49.186;9.226;2022-09-09T14:18:39;25.10;42.50
7254;DHT22;4060;49.186;9.226;2022-09-09T14:21:11;25.10;42.70
7254;DHT22;4060;49.186;9.226;2022-09-09T14:23:40;25.10;42.80
7254;DHT22;4060;49.186;9.226;2022-09-09T14:26:10;25.10;42.90
7254;DHT22;4060;49.186;9.226;2022-09-09T14:28:43;25.10;43.00
7254;DHT22;4060;49.186;9.226;2022-09-09T14:31:14;25.10;43.20
7254;DHT22;4060;49.186;9.226;2022-09-09T14:33:44;25.10;43.30
7254;DHT22;4060;49.186;9.226;2022-09-09T14:36:16;25.10;43.40
7254;DHT22;4060;49.186;9.226;2022-09-09T14:38:46;25.10;43.50
7254;DHT22;4060;49.186;9.226;2022-09-09T14:41:17;25.10;43.50
7254;DHT22;4060;49.186;9.226;2022-09-09T14:43:49;25.10;43.50
7254;DHT22;4060;49.186;9.226;2022-09-09T14:46:20;25.20;43.60
7254;DHT22;4060;49.186;9.226;2022-09-09T14:48:50;25.20;43.60
7254;DHT22;4060;49.186;9.226;2022-09-09T14:51:23;25.20;43.60
7254;DHT22;4060;49.186;9.226;2022-09-09T14:53:55;25.20;43.60
7254;DHT22;4060;49.186;9.226;2022-09-09T14:56:26;25.20;43.60
7254;DHT22;4060;49.186;9.226;2022-09-09T14:58:57;25.20;43.60
7254;DHT22;4060;49.186;9.226;2022-09-09T15:01:28;25.20;43.60
7254;DHT22;4060;49.186;9.226;2022-09-09T15:04:00;25.20;43.60
7254;DHT22;4060;49.186;9.226;2022-09-09T15:06:34;25.20;43.60
7254;DHT22;4060;49.186;9.226;2022-09-09T15:09:07;25.20;43.60
7254;DHT22;4060;49.186;9.226;2022-09-09T15:11:37;25.20;43.60
7254;DHT22;4060;49.186;9.226;2022-09-09T15:14:08;25.20;43.60
7254;DHT22;4060;49.186;9.226;2022-09-09T15:16:39;25.20;43.60
7254;DHT22;4060;49.186;9.226;2022-09-09T15:19:08;25.20;43.60
7254;DHT22;4060;49.186;9.226;2022-09-09T15:21:40;25.20;43.60
7254;DHT22;4060;49.186;9.226;2022-09-09T15:24:10;25.20;43.60
7254;DHT22;4060;49.186;9.226;2022-09-09T15:26:40;25.20;43.60
7254;DHT22;4060;49.186;9.226;2022-09-09T15:29:10;25.20;43.60
7254;DHT22;4060;49.186;9.226;2022-09-09T15:31:40;25.20;43.60
7254;DHT22;4060;49.186;9.226;2022-09-09T15:34:09;25.20;43.60
7254;DHT22;4060;49.186;9.226;2022-09-09T15:36:43;25.20;43.60
7254;DHT22;4060;49.186;9.226;2022-09-09T15:39:15;25.20;43.60
7254;DHT22;4060;49.186;9.226;2022-09-09T15:41:46;25.20;43.60
7254;DHT22;4060;49.186;9.226;2022-09-09T15:44:16;25.20;43.70
7254;DHT22;4060;49.186;9.226;2022-09-09T15:46:49;25.20;43.60
7254;DHT22;4060;49.186;9.226;2022-09-09T15:49:22;25.20;43.60
7254;DHT22;4060;49.186;9.226;2022-09-09T15:51:56;25.20;43.60
7254;DHT22;4060;49.186;9.226;2022-09-09T15:54:26;25.20;43.60
7254;DHT22;4060;49.186;9.226;2022-09-09T15:56:57;25.20;43.70
7254;DHT22;4060;49.186;9.226;2022-09-09T15:59:27;25.20;43.70
7254;DHT22;4060;49.186;9.226;2022-09-09T16:01:57;25.20;43.70
7254;DHT22;4060;49.186;9.226;2022-09-09T16:04:27;25.10;43.60
7254;DHT22;4060;49.186;9.226;2022-09-09T16:07:01;25.20;43.80
7254;DHT22;4060;49.186;9.226;2022-09-09T16:09:33;25.20;43.80
7254;DHT22;4060;49.186;9.226;2022-09-09T16:12:04;25.20;43.80
7254;DHT22;4060;49.186;9.226;2022-09-09T16:14:37;25.10;43.80
7254;DHT22;4060;49.186;9.226;2022-09-09T16:17:06;25.10;43.80
7254;DHT22;4060;49.186;9.226;2022-09-09T16:19:35;25.10;43.80
7254;DHT22;4060;49.186;9.226;2022-09-09T16:22:07;25.10;43.90
7254;DHT22;4060;49.186;9.226;2022-09-09T16:24:36;25.10;44.00
7254;DHT22;4060;49.186;9.226;2022-09-09T16:27:06;25.10;44.00
7254;DHT22;4060;49.186;9.226;2022-09-09T16:29:36;25.10;44.00
7254;DHT22;4060;49.186;9.226;2022-09-09T16:32:06;25.10;44.10
7254;DHT22;4060;49.186;9.226;2022-09-09T16:34:35;25.10;44.20
7254;DHT22;4060;49.186;9.226;2022-09-09T16:37:07;25.10;44.50
7254;DHT22;4060;49.186;9.226;2022-09-09T16:39:36;25.10;44.80
7254;DHT22;4060;49.186;9.226;2022-09-09T16:42:06;25.00;44.90
7254;DHT22;4060;49.186;9.226;2022-09-09T16:44:36;25.10;45.10
7254;DHT22;4060;49.186;9.226;2022-09-09T16:47:06;25.00;45.20
7254;DHT22;4060;49.186;9.226;2022-09-09T16:49:36;25.00;45.20
7254;DHT22;4060;49.186;9.226;2022-09-09T16:52:09;25.00;45.30
7254;DHT22;4060;49.186;9.226;2022-09-09T16:54:38;25.00;45.40
7254;DHT22;4060;49.186;9.226;2022-09-09T16:57:07;25.00;45.50
7254;DHT22;4060;49.186;9.226;2022-09-09T16:59:37;25.00;45.60